sensor_id;sensor_type;location;lat;lon;timestamp;pressure;altitude;pressure_sealevel;temperature;humidity
40502;BME280;29631;49.168;9.848;2023-10-19T00:00:34;95102.47;;;16.68;86.43
40502;BME280;29631;49.168;9.848;2023-10-19T00:03:02;95107.22;;;16.71;86.37
40502;BME280;29631;49.168;9.848;2023-10-19T00:05:29;95114.72;;;16.69;86.02
40502;BME280;29631;49.168;9.848;2023-10-19T00:08:01;95102.72;;;16.72;86.64
40502;BME280;29631;49.168;9.848;2023-10-19T00:10:31;95102.13;;;16.74;86.45
40502;BME280;29631;49.168;9.848;2023-10-19T00:13:03;95101.34;;;16.74;86.91
40502;BME280;29631;49.168;9.848;2023-10-19T00:15:38;95105.63;;;16.75;86.81
40502;BME280;29631;49.168;9.848;2023-10-19T00:18:15;95119.69;;;16.75;86.66
40502;BME280;29631;49.168;9.848;2023-10-19T00:20:43;95104.53;;;16.76;86.92
40502;BME280;29631;49.168;9.848;2023-10-19T00:23:12;95098.13;;;16.77;86.55
40502;BME280;29631;49.168;9.848;2023-10-19T00:25:47;95096.28;;;16.77;86.52
40502;BME280;29631;49.168;9.848;2023-10-19T00:28:20;95091.72;;;16.78;86.54
40502;BME280;29631;49.168;9.848;2023-10-19T00:30:48;95094.91;;;16.80;87.27
40502;BME280;29631;49.168;9.848;2023-10-19T00:33:15;95091.19;;;16.81;87.23
40502;BME280;29631;49.168;9.848;2023-10-19T00:35:43;95101.25;;;16.84;86.85
40502;BME280;29631;49.168;9.848;2023-10-19T00:38:32;95087.69;;;16.85;86.55
40502;BME280;29631;49.168;9.848;2023-10-19T00:41:01;95099.91;;;16.86;87.16
40502;BME280;29631;49.168;9.848;2023-10-19T00:43:46;95090.59;;;16.84;87.32
40502;BME280;29631;49.168;9.848;2023-10-19T00:46:17;95096.16;;;16.87;87.08
40502;BME280;29631;49.168;9.848;2023-10-19T00:48:57;95097.19;;;16.91;87.49
40502;BME280;29631;49.168;9.848;2023-10-19T00:51:37;95082.59;;;16.89;87.16
40502;BME280;29631;49.168;9.848;2023-10-19T00:54:26;95086.03;;;16.89;87.18
40502;BME280;29631;49.168;9.848;2023-10-19T00:57:00;95091.13;;;16.86;87.42
40502;BME280;29631;49.168;9.848;2023-10-19T00:59:39;95081.28;;;16.86;87.93
40502;BME280;29631;49.168;9.848;2023-10-19T01:02:09;95077.06;;;16.80;87.71
40502;BME280;29631;49.168;9.848;2023-10-19T01:04:56;95073.66;;;16.75;87.63
40502;BME280;29631;49.168;9.848;2023-10-19T01:07:26;95076.34;;;16.75;87.56
40502;BME280;29631;49.168;9.848;2023-10-19T01:09:59;95066.75;;;16.74;87.79
40502;BME280;29631;49.168;9.848;2023-10-19T01:12:26;95073.66;;;16.75;87.50
40502;BME280;29631;49.168;9.848;2023-10-19T01:15:09;95078.19;;;16.74;88.34
40502;BME280;29631;49.168;9.848;2023-10-19T01:17:54;95075.53;;;16.74;87.39
40502;BME280;29631;49.168;9.848;2023-10-19T01:20:28;95058.84;;;16.69;88.11
40502;BME280;29631;49.168;9.848;2023-10-19T01:23:06;95059.31;;;16.71;88.24
40502;BME280;29631;49.168;9.848;2023-10-19T01:28:09;95054.06;;;16.66;88.43
40502;BME280;29631;49.168;9.848;2023-10-19T01:30:37;95045.78;;;16.68;88.35
40502;BME280;29631;49.168;9.848;2023-10-19T01:33:04;95037.53;;;16.69;88.68
40502;BME280;29631;49.168;9.848;2023-10-19T01:35:34;95028.75;;;16.69;88.08
40502;BME280;29631;49.168;9.848;2023-10-19T01:38:18;95039.91;;;16.71;88.42
40502;BME280;29631;49.168;9.848;2023-10-19T01:40:43;95035.59;;;16.74;88.93
40502;BME280;29631;49.168;9.848;2023-10-19T01:43:12;95032.16;;;16.74;88.66
40502;BME280;29631;49.168;9.848;2023-10-19T01:45:58;95036.91;;;16.77;88.50
40502;BME280;29631;49.168;9.848;2023-10-19T01:48:27;95028.44;;;16.75;88.37
40502;BME280;29631;49.168;9.848;2023-10-19T01:51:03;95035.03;;;16.77;88.55
40502;BME280;29631;49.168;9.848;2023-10-19T01:53:33;95036.97;;;16.72;88.88
40502;BME280;29631;49.168;9.848;2023-10-19T01:56:01;95044.63;;;16.78;89.36
40502;BME280;29631;49.168;9.848;2023-10-19T01:58:26;95043.25;;;16.81;89.11
40502;BME280;29631;49.168;9.848;2023-10-19T02:00:55;95039.00;;;16.80;89.23
40502;BME280;29631;49.168;9.848;2023-10-19T02:03:21;95025.16;;;16.83;89.53
40502;BME280;29631;49.168;9.848;2023-10-19T02:05:59;95024.56;;;16.86;89.17
40502;BME280;29631;49.168;9.848;2023-10-19T02:08:27;95017.56;;;16.95;89.99
40502;BME280;29631;49.168;9.848;2023-10-19T02:10:53;95012.44;;;16.98;89.40
40502;BME280;29631;49.168;9.848;2023-10-19T02:13:22;95008.97;;;16.98;89.92
40502;BME280;29631;49.168;9.848;2023-10-19T02:15:49;95012.09;;;17.05;89.83
40502;BME280;29631;49.168;9.848;2023-10-19T02:18:16;95004.03;;;17.10;90.32
40502;BME280;29631;49.168;9.848;2023-10-19T02:20:42;95001.34;;;17.15;90.08
40502;BME280;29631;49.168;9.848;2023-10-19T02:23:13;95000.75;;;17.18;90.71
40502;BME280;29631;49.168;9.848;2023-10-19T02:25:40;94987.13;;;17.19;90.69
40502;BME280;29631;49.168;9.848;2023-10-19T02:28:06;94983.41;;;17.20;91.23
40502;BME280;29631;49.168;9.848;2023-10-19T02:30:35;94981.47;;;17.26;91.49
40502;BME280;29631;49.168;9.848;2023-10-19T02:33:01;94975.03;;;17.32;92.32
40502;BME280;29631;49.168;9.848;2023-10-19T02:35:29;94969.13;;;17.35;92.45
40502;BME280;29631;49.168;9.848;2023-10-19T02:37:55;94955.88;;;17.30;93.47
40502;BME280;29631;49.168;9.848;2023-10-19T02:40:21;94967.69;;;17.42;93.23
40502;BME280;29631;49.168;9.848;2023-10-19T02:42:49;94962.06;;;17.44;93.83
40502;BME280;29631;49.168;9.848;2023-10-19T02:45:19;94967.03;;;17.50;93.72
40502;BME280;29631;49.168;9.848;2023-10-19T02:47:46;94966.09;;;17.59;93.94
40502;BME280;29631;49.168;9.848;2023-10-19T02:50:12;94959.19;;;17.58;94.05
40502;BME280;29631;49.168;9.848;2023-10-19T02:52:48;94955.44;;;17.59;94.41
40502;BME280;29631;49.168;9.848;2023-10-19T02:55:14;94959.41;;;17.62;94.52
40502;BME280;29631;49.168;9.848;2023-10-19T02:57:43;94955.28;;;17.69;94.45
40502;BME280;29631;49.168;9.848;2023-10-19T03:00:12;94952.31;;;17.71;94.77
40502;BME280;29631;49.168;9.848;2023-10-19T03:02:46;94945.63;;;17.73;95.04
40502;BME280;29631;49.168;9.848;2023-10-19T03:05:12;94941.72;;;17.84;95.04
40502;BME280;29631;49.168;9.848;2023-10-19T03:07:44;94933.13;;;17.87;95.26
40502;BME280;29631;49.168;9.848;2023-10-19T03:10:11;94936.19;;;17.94;95.07
40502;BME280;29631;49.168;9.848;2023-10-19T03:12:50;94926.34;;;17.95;94.97
40502;BME280;29631;49.168;9.848;2023-10-19T03:15:17;94937.34;;;18.07;95.03
40502;BME280;29631;49.168;9.848;2023-10-19T03:17:46;94929.03;;;18.08;94.47
40502;BME280;29631;49.168;9.848;2023-10-19T03:20:12;94934.47;;;18.17;94.21
40502;BME280;29631;49.168;9.848;2023-10-19T03:22:42;94929.94;;;18.17;94.66
40502;BME280;29631;49.168;9.848;2023-10-19T03:25:09;94931.47;;;18.23;94.42
40502;BME280;29631;49.168;9.848;2023-10-19T03:27:54;94940.97;;;18.29;94.04
40502;BME280;29631;49.168;9.848;2023-10-19T03:30:21;94934.53;;;18.30;94.31
40502;BME280;29631;49.168;9.848;2023-10-19T03:32:50;94940.97;;;18.29;94.51
40502;BME280;29631;49.168;9.848;2023-10-19T03:35:16;94934.34;;;18.26;94.25
40502;BME280;29631;49.168;9.848;2023-10-19T03:37:41;94933.72;;;18.29;94.64
40502;BME280;29631;49.168;9.848;2023-10-19T03:40:08;94935.53;;;18.34;94.20
40502;BME280;29631;49.168;9.848;2023-10-19T03:42:37;94936.03;;;18.36;94.69
40502;BME280;29631;49.168;9.848;2023-10-19T03:45:12;94931.97;;;18.38;94.29
40502;BME280;29631;49.168;9.848;2023-10-19T03:47:41;94921.50;;;18.42;94.38
40502;BME280;29631;49.168;9.848;2023-10-19T03:50:09;94922.00;;;18.44;93.85
40502;BME280;29631;49.168;9.848;2023-10-19T03:52:40;94914.47;;;18.46;93.96
40502;BME280;29631;49.168;9.848;2023-10-19T03:55:06;94917.16;;;18.46;93.65
40502;BME280;29631;49.168;9.848;2023-10-19T03:57:37;94899.06;;;18.43;93.42
40502;BME280;29631;49.168;9.848;2023-10-19T04:00:09;94909.03;;;18.51;93.64
40502;BME280;29631;49.168;9.848;2023-10-19T04:02:40;94905.78;;;18.54;94.03
40502;BME280;29631;49.168;9.848;2023-10-19T04:05:08;94904.09;;;18.58;94.15
40502;BME280;29631;49.168;9.848;2023-10-19T04:07:40;94887.09;;;18.54;93.41
40502;BME280;29631;49.168;9.848;2023-10-19T04:10:08;94892.06;;;18.60;93.59
40502;BME280;29631;49.168;9.848;2023-10-19T04:12:40;94886.03;;;18.55;93.97
40502;BME280;29631;49.168;9.848;2023-10-19T04:15:08;94890.94;;;18.61;93.41
40502;BME280;29631;49.168;9.848;2023-10-19T04:17:47;94891.75;;;18.62;93.28
40502;BME280;29631;49.168;9.848;2023-10-19T04:20:18;94885.34;;;18.63;93.39
40502;BME280;29631;49.168;9.848;2023-10-19T04:22:46;94872.47;;;18.65;93.49
40502;BME280;29631;49.168;9.848;2023-10-19T04:25:13;94867.31;;;18.68;93.55
40502;BME280;29631;49.168;9.848;2023-10-19T04:27:39;94864.38;;;18.70;93.42
40502;BME280;29631;49.168;9.848;2023-10-19T04:30:14;94858.22;;;18.69;93.43
40502;BME280;29631;49.168;9.848;2023-10-19T04:32:59;94862.97;;;18.72;93.19
40502;BME280;29631;49.168;9.848;2023-10-19T04:35:27;94853.84;;;18.73;93.49
40502;BME280;29631;49.168;9.848;2023-10-19T04:37:58;94852.56;;;18.71;93.16
40502;BME280;29631;49.168;9.848;2023-10-19T04:40:24;94859.50;;;18.72;93.52
40502;BME280;29631;49.168;9.848;2023-10-19T04:42:51;94856.16;;;18.66;93.19
40502;BME280;29631;49.168;9.848;2023-10-19T04:45:18;94847.16;;;18.76;93.48
40502;BME280;29631;49.168;9.848;2023-10-19T04:47:44;94838.13;;;18.72;93.10
40502;BME280;29631;49.168;9.848;2023-10-19T04:50:10;94854.84;;;18.77;93.27
40502;BME280;29631;49.168;9.848;2023-10-19T04:52:37;94848.69;;;18.77;92.85
40502;BME280;29631;49.168;9.848;2023-10-19T04:55:03;94840.22;;;18.75;92.89
40502;BME280;29631;49.168;9.848;2023-10-19T04:57:29;94831.22;;;18.71;93.34
40502;BME280;29631;49.168;9.848;2023-10-19T04:59:56;94836.28;;;18.72;92.92
40502;BME280;29631;49.168;9.848;2023-10-19T05:02:22;94834.88;;;18.75;92.91
40502;BME280;29631;49.168;9.848;2023-10-19T05:04:48;94827.56;;;18.67;92.87
40502;BME280;29631;49.168;9.848;2023-10-19T05:07:14;94838.13;;;18.72;92.78
40502;BME280;29631;49.168;9.848;2023-10-19T05:09:46;94840.03;;;18.71;92.98
40502;BME280;29631;49.168;9.848;2023-10-19T05:12:14;94836.28;;;18.72;93.01
40502;BME280;29631;49.168;9.848;2023-10-19T05:14:41;94837.56;;;18.75;93.26
40502;BME280;29631;49.168;9.848;2023-10-19T05:17:08;94837.81;;;18.73;93.15
40502;BME280;29631;49.168;9.848;2023-10-19T05:19:39;94839.22;;;18.71;92.91
40502;BME280;29631;49.168;9.848;2023-10-19T05:22:08;94837.66;;;18.70;93.21
40502;BME280;29631;49.168;9.848;2023-10-19T05:24:35;94839.03;;;18.67;93.14
40502;BME280;29631;49.168;9.848;2023-10-19T05:27:01;94838.25;;;18.67;92.94
40502;BME280;29631;49.168;9.848;2023-10-19T05:29:28;94842.19;;;18.69;92.49
40502;BME280;29631;49.168;9.848;2023-10-19T05:31:54;94846.75;;;18.69;93.20
40502;BME280;29631;49.168;9.848;2023-10-19T05:34:21;94840.41;;;18.65;93.08
40502;BME280;29631;49.168;9.848;2023-10-19T05:36:47;94850.00;;;18.66;92.82
40502;BME280;29631;49.168;9.848;2023-10-19T05:39:15;94846.38;;;18.62;93.50
40502;BME280;29631;49.168;9.848;2023-10-19T05:41:41;94847.47;;;18.61;92.68
40502;BME280;29631;49.168;9.848;2023-10-19T05:44:07;94850.63;;;18.63;93.17
40502;BME280;29631;49.168;9.848;2023-10-19T05:46:32;94846.38;;;18.62;92.87
40502;BME280;29631;49.168;9.848;2023-10-19T05:48:58;94852.28;;;18.59;92.68
40502;BME280;29631;49.168;9.848;2023-10-19T05:51:25;94850.91;;;18.61;92.95
40502;BME280;29631;49.168;9.848;2023-10-19T05:53:50;94853.88;;;18.60;93.25
40502;BME280;29631;49.168;9.848;2023-10-19T05:56:17;94839.94;;;18.49;92.82
40502;BME280;29631;49.168;9.848;2023-10-19T05:58:45;94868.31;;;18.59;92.77
40502;BME280;29631;49.168;9.848;2023-10-19T06:01:16;94847.19;;;18.49;93.02
40502;BME280;29631;49.168;9.848;2023-10-19T06:03:43;94866.72;;;18.58;92.72
40502;BME280;29631;49.168;9.848;2023-10-19T06:06:08;94861.81;;;18.51;92.64
40502;BME280;29631;49.168;9.848;2023-10-19T06:08:34;94879.00;;;18.59;92.16
40502;BME280;29631;49.168;9.848;2023-10-19T06:11:00;94871.59;;;18.56;91.89
40502;BME280;29631;49.168;9.848;2023-10-19T06:13:26;94876.44;;;18.54;92.56
40502;BME280;29631;49.168;9.848;2023-10-19T06:15:52;94875.44;;;18.50;92.45
40502;BME280;29631;49.168;9.848;2023-10-19T06:18:17;94883.34;;;18.55;92.43
40502;BME280;29631;49.168;9.848;2023-10-19T06:20:46;94881.19;;;18.57;92.13
40502;BME280;29631;49.168;9.848;2023-10-19T06:23:13;94880.38;;;18.56;91.80
40502;BME280;29631;49.168;9.848;2023-10-19T06:25:39;94872.78;;;18.50;92.43
40502;BME280;29631;49.168;9.848;2023-10-19T06:28:08;94880.19;;;18.53;91.98
40502;BME280;29631;49.168;9.848;2023-10-19T06:30:34;94874.34;;;18.51;92.13
40502;BME280;29631;49.168;9.848;2023-10-19T06:33:01;94866.94;;;18.48;92.27
40502;BME280;29631;49.168;9.848;2023-10-19T06:35:29;94886.53;;;18.57;92.23
40502;BME280;29631;49.168;9.848;2023-10-19T06:37:58;94871.66;;;18.51;91.96
40502;BME280;29631;49.168;9.848;2023-10-19T06:40:29;94871.59;;;18.56;92.06
40502;BME280;29631;49.168;9.848;2023-10-19T06:42:57;94871.88;;;18.54;92.29
40502;BME280;29631;49.168;9.848;2023-10-19T06:45:23;94858.03;;;18.52;92.13
40502;BME280;29631;49.168;9.848;2023-10-19T06:47:51;94858.81;;;18.53;92.23
40502;BME280;29631;49.168;9.848;2023-10-19T06:50:22;94873.25;;;18.52;92.44
40502;BME280;29631;49.168;9.848;2023-10-19T06:52:48;94875.66;;;18.53;91.93
40502;BME280;29631;49.168;9.848;2023-10-19T06:55:18;94879.41;;;18.52;91.93
40502;BME280;29631;49.168;9.848;2023-10-19T06:57:53;94875.34;;;18.55;91.91
40502;BME280;29631;49.168;9.848;2023-10-19T07:00:21;94876.44;;;18.54;92.23
40502;BME280;29631;49.168;9.848;2023-10-19T07:02:51;94868.72;;;18.52;92.26
40502;BME280;29631;49.168;9.848;2023-10-19T07:05:18;94876.03;;;18.47;91.85
40502;BME280;29631;49.168;9.848;2023-10-19T07:07:46;94887.88;;;18.54;92.54
40502;BME280;29631;49.168;9.848;2023-10-19T07:10:13;94878.00;;;18.55;92.17
40502;BME280;29631;49.168;9.848;2023-10-19T07:12:43;94879.09;;;18.54;92.43
40502;BME280;29631;49.168;9.848;2023-10-19T07:15:10;94881.66;;;18.59;92.21
40502;BME280;29631;49.168;9.848;2023-10-19T07:17:46;94864.66;;;18.55;92.31
40502;BME280;29631;49.168;9.848;2023-10-19T07:20:14;94857.63;;;18.59;91.97
40502;BME280;29631;49.168;9.848;2023-10-19T07:22:56;94864.56;;;18.60;92.52
40502;BME280;29631;49.168;9.848;2023-10-19T07:25:23;94866.16;;;18.61;92.24
40502;BME280;29631;49.168;9.848;2023-10-19T07:27:54;94859.09;;;18.65;92.43
40502;BME280;29631;49.168;9.848;2023-10-19T07:30:21;94864.16;;;18.66;92.13
40502;BME280;29631;49.168;9.848;2023-10-19T07:32:49;94858.03;;;18.66;92.16
40502;BME280;29631;49.168;9.848;2023-10-19T07:35:21;94862.16;;;18.72;91.95
40502;BME280;29631;49.168;9.848;2023-10-19T07:37:48;94862.66;;;18.74;92.22
40502;BME280;29631;49.168;9.848;2023-10-19T07:40:16;94872.16;;;18.80;92.17
40502;BME280;29631;49.168;9.848;2023-10-19T07:42:44;94865.72;;;18.81;92.21
40502;BME280;29631;49.168;9.848;2023-10-19T07:45:10;94868.28;;;18.86;92.54
40502;BME280;29631;49.168;9.848;2023-10-19T07:47:40;94871.44;;;18.88;92.77
40502;BME280;29631;49.168;9.848;2023-10-19T07:50:09;94876.19;;;18.91;92.76
40502;BME280;29631;49.168;9.848;2023-10-19T07:52:45;94872.44;;;18.92;92.68
40502;BME280;29631;49.168;9.848;2023-10-19T07:55:12;94870.84;;;18.91;92.97
40502;BME280;29631;49.168;9.848;2023-10-19T07:57:38;94859.56;;;18.93;93.24
40502;BME280;29631;49.168;9.848;2023-10-19T08:00:07;94857.97;;;18.92;92.95
40502;BME280;29631;49.168;9.848;2023-10-19T08:02:34;94840.56;;;18.95;93.31
40502;BME280;29631;49.168;9.848;2023-10-19T08:05:00;94848.06;;;18.93;92.61
40502;BME280;29631;49.168;9.848;2023-10-19T08:07:28;94861.16;;;18.94;93.31
40502;BME280;29631;49.168;9.848;2023-10-19T08:09:54;94850.88;;;18.88;93.34
40502;BME280;29631;49.168;9.848;2023-10-19T08:12:20;94846.03;;;18.90;93.34
40502;BME280;29631;49.168;9.848;2023-10-19T08:14:48;94847.09;;;18.89;93.37
40502;BME280;29631;49.168;9.848;2023-10-19T08:17:14;94847.41;;;18.88;93.40
40502;BME280;29631;49.168;9.848;2023-10-19T08:19:40;94860.47;;;18.89;93.03
40502;BME280;29631;49.168;9.848;2023-10-19T08:22:06;94852.56;;;18.84;93.13
40502;BME280;29631;49.168;9.848;2023-10-19T08:24:33;94832.09;;;18.80;92.90
40502;BME280;29631;49.168;9.848;2023-10-19T08:27:01;94858.69;;;18.85;93.45
40502;BME280;29631;49.168;9.848;2023-10-19T08:29:27;94853.66;;;18.83;93.13
40502;BME280;29631;49.168;9.848;2023-10-19T08:31:53;94842.34;;;18.86;93.39
40502;BME280;29631;49.168;9.848;2023-10-19T08:34:19;94845.22;;;18.90;93.24
40502;BME280;29631;49.168;9.848;2023-10-19T08:36:45;94858.28;;;18.91;93.24
40502;BME280;29631;49.168;9.848;2023-10-19T08:39:12;94840.88;;;18.93;93.82
40502;BME280;29631;49.168;9.848;2023-10-19T08:41:39;94849.38;;;18.95;93.35
40502;BME280;29631;49.168;9.848;2023-10-19T08:44:07;94834.44;;;18.94;93.75
40502;BME280;29631;49.168;9.848;2023-10-19T08:46:45;94832.16;;;19.01;93.55
40502;BME280;29631;49.168;9.848;2023-10-19T08:49:16;94832.63;;;19.03;93.89
40502;BME280;29631;49.168;9.848;2023-10-19T08:51:45;94825.88;;;19.06;93.44
40502;BME280;29631;49.168;9.848;2023-10-19T08:54:14;94832.44;;;19.13;94.05
40502;BME280;29631;49.168;9.848;2023-10-19T08:56:42;94826.19;;;19.18;93.63
40502;BME280;29631;49.168;9.848;2023-10-19T08:59:11;94832.19;;;19.23;93.54
40502;BME280;29631;49.168;9.848;2023-10-19T09:01:37;94829.38;;;19.28;93.77
40502;BME280;29631;49.168;9.848;2023-10-19T09:04:03;94829.28;;;19.33;94.08
40502;BME280;29631;49.168;9.848;2023-10-19T09:06:37;94829.16;;;19.38;94.36
40502;BME280;29631;49.168;9.848;2023-10-19T09:09:13;94826.50;;;19.38;93.81
40502;BME280;29631;49.168;9.848;2023-10-19T09:11:48;94841.19;;;19.49;93.95
40502;BME280;29631;49.168;9.848;2023-10-19T09:14:15;94834.63;;;19.55;94.16
40502;BME280;29631;49.168;9.848;2023-10-19T09:16:56;94836.38;;;19.60;94.17
40502;BME280;29631;49.168;9.848;2023-10-19T09:19:55;94833.75;;;19.68;94.35
40502;BME280;29631;49.168;9.848;2023-10-19T09:22:22;94832.06;;;19.72;94.38
40502;BME280;29631;49.168;9.848;2023-10-19T09:24:51;94825.00;;;19.76;94.24
40502;BME280;29631;49.168;9.848;2023-10-19T09:27:22;94827.53;;;19.81;94.52
40502;BME280;29631;49.168;9.848;2023-10-19T09:29:49;94813.88;;;19.82;94.53
40502;BME280;29631;49.168;9.848;2023-10-19T09:32:17;94818.38;;;19.95;94.61
40502;BME280;29631;49.168;9.848;2023-10-19T09:34:44;94813.28;;;20.16;95.07
40502;BME280;29631;49.168;9.848;2023-10-19T09:37:11;94803.25;;;20.30;94.40
40502;BME280;29631;49.168;9.848;2023-10-19T09:39:37;94807.53;;;20.39;94.08
40502;BME280;29631;49.168;9.848;2023-10-19T09:42:09;94807.22;;;20.49;94.20
40502;BME280;29631;49.168;9.848;2023-10-19T09:44:55;94814.03;;;20.63;94.77
40502;BME280;29631;49.168;9.848;2023-10-19T09:47:30;94805.13;;;20.76;94.18
40502;BME280;29631;49.168;9.848;2023-10-19T09:50:03;94809.09;;;20.87;94.46
40502;BME280;29631;49.168;9.848;2023-10-19T09:52:33;94788.75;;;20.86;94.21
40502;BME280;29631;49.168;9.848;2023-10-19T09:57:49;94803.88;;;21.08;95.32
40502;BME280;29631;49.168;9.848;2023-10-19T10:00:17;94799.00;;;21.18;94.61
40502;BME280;29631;49.168;9.848;2023-10-19T10:02:50;94794.28;;;21.23;94.56
40502;BME280;29631;49.168;9.848;2023-10-19T10:10:49;94788.75;;;21.37;95.38
40502;BME280;29631;49.168;9.848;2023-10-19T10:13:36;94789.66;;;21.41;95.33
40502;BME280;29631;49.168;9.848;2023-10-19T10:16:02;94798.69;;;21.45;96.12
40502;BME280;29631;49.168;9.848;2023-10-19T10:18:32;94799.13;;;21.47;95.62
40502;BME280;29631;49.168;9.848;2023-10-19T10:21:20;94808.75;;;21.48;96.04
40502;BME280;29631;49.168;9.848;2023-10-19T10:23:55;94803.38;;;21.48;95.77
40502;BME280;29631;49.168;9.848;2023-10-19T10:26:29;94801.81;;;21.47;95.73
40502;BME280;29631;49.168;9.848;2023-10-19T10:29:17;94795.66;;;21.46;96.29
40502;BME280;29631;49.168;9.848;2023-10-19T10:31:48;94795.19;;;21.53;96.42
40502;BME280;29631;49.168;9.848;2023-10-19T10:34:46;94790.94;;;21.60;96.85
40502;BME280;29631;49.168;9.848;2023-10-19T10:37:14;94782.09;;;21.68;96.83
40502;BME280;29631;49.168;9.848;2023-10-19T10:39:40;94773.06;;;21.73;96.53
40502;BME280;29631;49.168;9.848;2023-10-19T10:42:09;94774.78;;;21.77;96.64
40502;BME280;29631;49.168;9.848;2023-10-19T10:44:48;94767.06;;;21.76;97.11
40502;BME280;29631;49.168;9.848;2023-10-19T10:47:20;94772.56;;;21.88;96.88
40502;BME280;29631;49.168;9.848;2023-10-19T10:49:57;94772.38;;;21.92;96.67
40502;BME280;29631;49.168;9.848;2023-10-19T10:52:34;94768.88;;;22.00;97.32
40502;BME280;29631;49.168;9.848;2023-10-19T10:55:15;94773.78;;;22.07;96.76
40502;BME280;29631;49.168;9.848;2023-10-19T10:57:42;94775.47;;;22.11;97.31
40502;BME280;29631;49.168;9.848;2023-10-19T11:00:14;94770.09;;;22.11;96.98
40502;BME280;29631;49.168;9.848;2023-10-19T11:02:45;94765.38;;;22.08;97.05
40502;BME280;29631;49.168;9.848;2023-10-19T11:05:13;94758.91;;;22.09;97.10
40502;BME280;29631;49.168;9.848;2023-10-19T11:08:09;94756.66;;;22.11;97.40
40502;BME280;29631;49.168;9.848;2023-10-19T11:10:39;94747.50;;;22.12;97.16
40502;BME280;29631;49.168;9.848;2023-10-19T11:13:12;94748.75;;;22.15;97.10
40502;BME280;29631;49.168;9.848;2023-10-19T11:15:52;94748.91;;;22.18;97.54
40502;BME280;29631;49.168;9.848;2023-10-19T11:18:39;94750.47;;;22.19;97.43
40502;BME280;29631;49.168;9.848;2023-10-19T11:21:10;94748.59;;;22.20;97.33
40502;BME280;29631;49.168;9.848;2023-10-19T11:26:06;94748.75;;;22.23;97.59
40502;BME280;29631;49.168;9.848;2023-10-19T11:28:33;94747.59;;;22.24;97.54
40502;BME280;29631;49.168;9.848;2023-10-19T11:31:29;94749.84;;;22.22;97.39
40502;BME280;29631;49.168;9.848;2023-10-19T11:34:03;94738.44;;;22.25;97.12
40502;BME280;29631;49.168;9.848;2023-10-19T11:36:29;94738.44;;;22.25;97.02
40502;BME280;29631;49.168;9.848;2023-10-19T11:38:55;94746.19;;;22.27;97.19
40502;BME280;29631;49.168;9.848;2023-10-19T11:41:21;94740.69;;;22.23;97.00
40502;BME280;29631;49.168;9.848;2023-10-19T11:43:49;94742.38;;;22.28;97.30
40502;BME280;29631;49.168;9.848;2023-10-19T11:46:17;94738.44;;;22.25;97.08
40502;BME280;29631;49.168;9.848;2023-10-19T11:48:48;94738.31;;;22.30;96.94
40502;BME280;29631;49.168;9.848;2023-10-19T11:51:14;94740.81;;;22.27;97.38
40502;BME280;29631;49.168;9.848;2023-10-19T11:53:41;94742.09;;;22.29;96.75
40502;BME280;29631;49.168;9.848;2023-10-19T11:56:10;94735.13;;;22.28;97.05
40502;BME280;29631;49.168;9.848;2023-10-19T11:58:38;94731.34;;;22.21;97.43
40502;BME280;29631;49.168;9.848;2023-10-19T12:01:08;94733.72;;;22.22;97.07
40502;BME280;29631;49.168;9.848;2023-10-19T12:03:40;94740.03;;;22.26;97.10
40502;BME280;29631;49.168;9.848;2023-10-19T12:06:07;94742.22;;;22.24;97.29
40502;BME280;29631;49.168;9.848;2023-10-19T12:08:37;94749.03;;;22.22;97.09
40502;BME280;29631;49.168;9.848;2023-10-19T12:11:04;94744.78;;;22.21;96.98
40502;BME280;29631;49.168;9.848;2023-10-19T12:13:33;94739.41;;;22.21;96.93
40502;BME280;29631;49.168;9.848;2023-10-19T12:15:59;94736.28;;;22.19;97.20
40502;BME280;29631;49.168;9.848;2023-10-19T12:18:25;94738.81;;;22.15;97.34
40502;BME280;29631;49.168;9.848;2023-10-19T12:20:54;94730.97;;;22.10;97.74
40502;BME280;29631;49.168;9.848;2023-10-19T12:23:25;94734.09;;;22.12;97.23
40502;BME280;29631;49.168;9.848;2023-10-19T12:25:51;94729.81;;;22.11;97.12
40502;BME280;29631;49.168;9.848;2023-10-19T12:28:18;94731.88;;;22.14;97.46
40502;BME280;29631;49.168;9.848;2023-10-19T12:30:44;94735.66;;;22.13;96.72
40502;BME280;29631;49.168;9.848;2023-10-19T12:33:10;94734.88;;;22.13;96.55
40502;BME280;29631;49.168;9.848;2023-10-19T12:35:41;94733.16;;;22.08;96.45
40502;BME280;29631;49.168;9.848;2023-10-19T12:38:25;94724.00;;;22.09;96.59
40502;BME280;29631;49.168;9.848;2023-10-19T12:40:51;94718.34;;;22.02;96.62
40502;BME280;29631;49.168;9.848;2023-10-19T12:43:18;94727.50;;;22.01;96.66
40502;BME280;29631;49.168;9.848;2023-10-19T12:45:45;94721.84;;;21.94;96.43
40502;BME280;29631;49.168;9.848;2023-10-19T12:48:17;94720.28;;;21.93;96.90
40502;BME280;29631;49.168;9.848;2023-10-19T12:50:43;94718.69;;;21.92;96.86
40502;BME280;29631;49.168;9.848;2023-10-19T12:53:09;94714.00;;;21.90;96.93
40502;BME280;29631;49.168;9.848;2023-10-19T12:55:35;94712.88;;;21.91;97.19
40502;BME280;29631;49.168;9.848;2023-10-19T12:58:04;94711.31;;;21.90;97.21
40502;BME280;29631;49.168;9.848;2023-10-19T13:00:35;94714.94;;;21.85;97.33
40502;BME280;29631;49.168;9.848;2023-10-19T13:03:10;94704.25;;;21.77;97.65
40502;BME280;29631;49.168;9.848;2023-10-19T13:05:43;94708.97;;;21.80;97.75
40502;BME280;29631;49.168;9.848;2023-10-19T13:08:14;94704.53;;;21.84;97.94
40502;BME280;29631;49.168;9.848;2023-10-19T13:10:45;94699.19;;;21.84;97.91
40502;BME280;29631;49.168;9.848;2023-10-19T13:13:13;94707.66;;;21.86;97.38
40502;BME280;29631;49.168;9.848;2023-10-19T13:15:43;94700.75;;;21.85;97.97
40502;BME280;29631;49.168;9.848;2023-10-19T13:18:10;94683.53;;;21.86;98.00
40502;BME280;29631;49.168;9.848;2023-10-19T13:20:39;94684.00;;;21.88;97.46
40502;BME280;29631;49.168;9.848;2023-10-19T13:23:07;94684.00;;;21.88;97.83
40502;BME280;29631;49.168;9.848;2023-10-19T13:25:38;94666.78;;;21.89;97.92
40502;BME280;29631;49.168;9.848;2023-10-19T13:28:17;94653.09;;;21.82;97.92